Huvudsida
METAR-TAF:

METAR-TAF

Flygplatser :

Bamako, Mali

latitud: 12-32N, longitud: 007-57W, höjd: 380 m

Aktuellt väderrapport

Denna rapport gjordes för 32 minuter sedan, klockan 14:00 UTC
Vind 5 kt från ost/sydost, varierande mellan nord/nordost och syd/sydväst
Temperatur 37°C
Fuktighet 15%
Tryck 1012 hPa
Sikt 10 km eller mer
Inga moln under 1 500 m eller inga cumulonimbus

METAR: GABS 161400Z 12005KT 030V200 CAVOK 37/06 Q1012 NOSIG

Tid: 14:32 (14:32 UTC)

Väderprognos

Denna rapport gjordes för 3 timmar och 2 minuter sedan, klockan 11:30 UTC
Prognos gäller från 16 kl. 12 UTC till 17 kl. 18 UTC
Vind 6 kt från nord/nordost
Sikt 10 km eller mer
Inga moln under 1 500 m eller inga cumulonimbus
Sannolikhet 40% :
Temporärt
från 17 kl. 07 UTC till 17 kl. 12 UTC
Sikt: 4000 m
torrdis

TAF: GABS 161130Z 1612/1718 02006KT CAVOK PROB40 TEMPO 1707/1712 4000 HZ

Aktuella väderrapporter och prognoser från 4000 flygplatser (METAR- och TAF-rapporter).

De tillgängliga stationerna syns som gula och röda prickar på kartan.

För musen över prickarna för att se namnen på stationerna.

Klicka sedan för att få väderrapporter och prognoser.

För att ändra kartan: Klicka på de gröna knapparna med ett svart kors på för att zooma in; den gröna knappen med ett streck på för att zooma ut; eller på de gröna pilarna för angränsande kartor.


METAR-TAF: